Time;durP1;ratioP1;P1;durP2;ratioP2;P2;SDS_P1;SDS_P2;PMS_P1;PMS_P2;Temp;Humidity;BMP_temperature;BMP_pressure;BME280_temperature;BME280_humidity;BME280_pressure;Samples;Min_cycle;Max_cycle;Signal;HPM_P1;HPM_P2
2022/11/16 00:01:21;;;;;;;5.25;3.67;;;;;;;19.42;47.06;100084.00;5090627;28;20110;-71
2022/11/16 00:03:47;;;;;;;5.40;3.65;;;;;;;19.42;47.22;100076.06;5089227;28;20385;-70
2022/11/16 00:06:13;;;;;;;7.28;3.60;;;;;;;19.43;47.19;100074.25;5089542;28;20040;-70
2022/11/16 00:08:42;;;;;;;6.82;3.72;;;;;;;19.36;47.28;100063.63;5087527;28;20031;-70
2022/11/16 00:11:14;;;;;;;6.43;4.13;;;;;;;19.39;47.22;100065.91;5087019;28;20031;-70
2022/11/16 00:13:41;;;;;;;6.38;4.07;;;;;;;19.42;47.26;100069.97;5086853;28;20047;-70
2022/11/16 00:16:13;;;;;;;5.90;3.67;;;;;;;19.37;47.40;100070.53;5088824;28;20035;-70
2022/11/16 00:18:38;;;;;;;7.63;4.32;;;;;;;19.46;47.24;100063.28;5092460;28;20037;-70
2022/11/16 00:21:04;;;;;;;7.05;4.60;;;;;;;19.33;47.60;100058.75;5087661;28;20051;-70
2022/11/16 00:23:30;;;;;;;6.22;4.55;;;;;;;19.36;47.57;100061.00;5088257;28;20040;-70
2022/11/16 00:26:02;;;;;;;7.55;4.18;;;;;;;19.40;47.58;100059.63;5091396;28;20045;-70
2022/11/16 00:28:28;;;;;;;6.00;4.07;;;;;;;19.35;47.78;100058.56;5093912;28;20444;-70
2022/11/16 00:31:01;;;;;;;6.95;3.70;;;;;;;19.43;47.44;100055.78;5092060;28;20023;-70
2022/11/16 00:33:27;;;;;;;6.13;3.85;;;;;;;19.39;47.48;100049.22;5087663;28;20158;-70
2022/11/16 00:35:53;;;;;;;7.65;4.60;;;;;;;19.40;47.63;100042.97;5090883;28;20051;-70
2022/11/16 00:38:18;;;;;;;6.38;4.35;;;;;;;19.31;47.69;100044.94;5078399;28;20036;-70
2022/11/16 00:40:44;;;;;;;7.50;3.80;;;;;;;19.36;47.74;100037.22;5094205;28;20047;-70
2022/11/16 00:43:09;;;;;;;6.38;4.13;;;;;;;19.41;47.87;100042.75;5096245;28;20038;-70
2022/11/16 00:45:37;;;;;;;6.55;3.88;;;;;;;19.43;47.71;100042.56;5096139;28;20042;-70
2022/11/16 00:48:03;;;;;;;6.10;4.10;;;;;;;19.38;47.75;100047.59;5096628;28;20036;-70
2022/11/16 00:50:29;;;;;;;6.70;4.35;;;;;;;19.38;47.72;100034.41;5077354;28;20063;-70
2022/11/16 00:52:55;;;;;;;7.32;4.20;;;;;;;19.36;47.92;100033.78;5094299;28;20493;-70
2022/11/16 00:55:22;;;;;;;6.80;4.10;;;;;;;19.46;47.68;100028.97;5087334;28;20134;-70
2022/11/16 00:57:47;;;;;;;6.32;4.10;;;;;;;19.30;47.96;100022.19;5088420;28;20043;-70
2022/11/16 01:00:15;;;;;;;8.70;4.30;;;;;;;19.35;47.91;100027.69;5089831;28;20158;-70
2022/11/16 01:02:41;;;;;;;6.00;4.28;;;;;;;19.30;48.08;100024.81;5095039;28;20035;-70
2022/11/16 01:05:08;;;;;;;5.20;3.80;;;;;;;19.30;48.08;100024.81;5094672;28;20028;-70
2022/11/16 01:07:35;;;;;;;6.78;4.38;;;;;;;19.33;48.13;100016.50;5096242;27;20056;-70
2022/11/16 01:10:09;;;;;;;6.40;4.82;;;;;;;19.35;48.12;100018.94;5076669;28;20028;-70
2022/11/16 01:12:35;;;;;;;6.20;4.22;;;;;;;19.37;48.23;100014.28;5091163;28;20359;-70
2022/11/16 01:15:07;;;;;;;6.35;4.20;;;;;;;19.37;48.17;100011.66;5092881;28;20074;-70
2022/11/16 01:17:37;;;;;;;5.70;3.90;;;;;;;19.31;48.26;100007.97;5092957;28;20109;-70
2022/11/16 01:20:06;;;;;;;5.93;3.97;;;;;;;19.44;48.01;100007.22;5093460;28;20901;-70
2022/11/16 01:22:36;;;;;;;9.25;4.57;;;;;;;19.33;48.23;100008.59;5106094;27;20035;-70
2022/11/16 01:25:03;;;;;;;5.72;4.32;;;;;;;19.35;48.22;100003.13;5087448;28;20046;-70
2022/11/16 01:27:28;;;;;;;6.82;4.30;;;;;;;19.39;48.09;100002.53;5095782;27;20074;-70
2022/11/16 01:29:56;;;;;;;6.07;4.30;;;;;;;19.34;48.30;99997.03;5090397;28;20035;-71
2022/11/16 01:32:22;;;;;;;6.95;4.07;;;;;;;19.34;48.47;99997.03;5091916;28;20040;-70
2022/11/16 01:34:48;;;;;;;7.40;3.90;;;;;;;19.38;48.27;99995.59;5093246;27;20500;-70
2022/11/16 01:37:26;;;;;;;6.63;4.10;;;;;;;19.40;48.21;99995.44;5091599;28;20080;-70
2022/11/16 01:39:52;;;;;;;5.95;3.80;;;;;;;19.40;48.23;99990.16;5087737;28;20036;-71
2022/11/16 01:42:20;;;;;;;6.35;4.35;;;;;;;19.40;48.03;99982.25;5089261;28;21821;-70
2022/11/16 01:44:53;;;;;;;6.80;4.05;;;;;;;19.29;48.51;99984.41;5105369;27;20039;-70
2022/11/16 01:47:19;;;;;;;8.60;4.57;;;;;;;19.29;48.50;99981.78;5093610;28;20039;-70
2022/11/16 01:49:48;;;;;;;10.13;5.40;;;;;;;19.33;48.42;99971.63;5092634;28;20109;-70
2022/11/16 01:52:20;;;;;;;4.85;3.80;;;;;;;19.31;48.43;99974.47;5094115;27;20032;-70
2022/11/16 01:54:50;;;;;;;6.30;3.85;;;;;;;19.19;48.65;99968.13;5095654;28;20023;-70
2022/11/16 01:57:26;;;;;;;8.57;4.50;;;;;;;19.44;48.24;99972.91;5106159;27;20081;-70
2022/11/16 02:00:03;;;;;;;7.32;3.75;;;;;;;19.35;48.29;99958.22;5084417;28;20036;-70
2022/11/16 02:02:39;;;;;;;7.35;3.95;;;;;;;19.35;48.56;99959.03;5085290;28;20040;-70
2022/11/16 02:05:06;;;;;;;6.90;3.97;;;;;;;19.35;48.33;99951.13;5085543;28;20702;-70
2022/11/16 02:11:06;;;;;;;5.97;4.05;;;;;;;19.32;48.63;99938.31;5100818;27;20036;-70
2022/11/16 02:14:08;;;;;;;6.47;3.92;;;;;;;19.36;48.52;99939.56;5095166;27;20048;-70
2022/11/16 02:16:36;;;;;;;6.47;4.30;;;;;;;19.32;48.79;99940.97;5091699;28;20484;-70
2022/11/16 02:19:24;;;;;;;5.97;3.97;;;;;;;19.33;48.57;99938.13;5092574;28;20043;-70
2022/11/16 02:22:21;;;;;;;6.05;3.95;;;;;;;19.33;48.75;99934.69;5090715;28;20719;-70
2022/11/16 02:25:05;;;;;;;6.78;3.85;;;;;;;19.32;48.62;99931.22;5100679;27;20055;-69
2022/11/16 02:27:47;;;;;;;5.40;3.85;;;;;;;19.37;48.50;99927.97;5088034;28;20084;-70
2022/11/16 02:30:15;;;;;;;8.38;4.30;;;;;;;19.39;48.57;99930.41;5104633;27;20241;-69
2022/11/16 02:32:51;;;;;;;7.43;4.03;;;;;;;19.34;48.63;99928.38;5085377;28;20133;-69
2022/11/16 02:35:26;;;;;;;7.60;4.30;;;;;;;19.38;48.61;99926.97;5087710;28;20032;-69
2022/11/16 02:38:03;;;;;;;5.18;4.03;;;;;;;19.29;48.65;99923.69;5090819;27;20032;-69
2022/11/16 02:40:32;;;;;;;6.60;3.92;;;;;;;19.51;48.54;99913.81;5083263;28;20053;-70
2022/11/16 02:43:07;;;;;;;5.38;3.90;;;;;;;19.45;48.37;99913.81;5089629;28;20024;-69
2022/11/16 02:45:39;;;;;;;7.05;3.80;;;;;;;19.47;48.28;99906.50;5089501;28;20129;-69
2022/11/16 02:48:13;;;;;;;7.80;4.10;;;;;;;19.34;48.69;99909.91;5083906;28;20028;-69
2022/11/16 02:50:41;;;;;;;8.38;3.97;;;;;;;19.31;48.79;99908.47;5087164;28;20027;-69
2022/11/16 02:53:08;;;;;;;5.57;3.60;;;;;;;19.41;48.49;99899.38;5104864;27;20031;-69
2022/11/16 02:55:35;;;;;;;6.65;3.67;;;;;;;19.38;48.48;99907.69;5085951;28;20252;-69
2022/11/16 02:58:04;;;;;;;6.45;3.67;;;;;;;19.40;48.63;99900.41;5087538;28;20036;-69
2022/11/16 03:00:47;;;;;;;6.65;3.88;;;;;;;19.28;48.72;99898.31;5073516;28;20393;-70
2022/11/16 03:03:39;;;;;;;7.47;4.10;;;;;;;19.37;48.57;99898.13;5086942;28;20046;-69
2022/11/16 03:06:10;;;;;;;;;;;;;;;19.36;48.71;99894.69;5089579;27;20040;-69
2022/11/16 03:08:44;;;;;;;5.88;4.00;;;;;;;19.25;48.95;99892.63;5088391;28;20073;-69
2022/11/16 03:14:04;;;;;;;6.38;4.55;;;;;;;19.31;48.94;99892.63;5091917;28;20116;-69
2022/11/16 03:16:36;;;;;;;8.18;4.35;;;;;;;19.39;48.64;99893.47;5069592;28;20704;-69
2022/11/16 03:19:07;;;;;;;6.50;4.00;;;;;;;19.40;48.62;99892.47;5087309;28;20040;-69
2022/11/16 03:21:42;;;;;;;9.98;4.88;;;;;;;19.35;48.70;99885.13;5080721;28;20062;-69
2022/11/16 03:24:08;;;;;;;6.65;3.67;;;;;;;19.32;48.86;99886.34;5083968;28;20032;-69
2022/11/16 03:27:00;;;;;;;6.03;4.22;;;;;;;19.27;49.01;99878.22;5088773;28;20035;-69
2022/11/16 03:29:31;;;;;;;6.43;4.10;;;;;;;19.37;48.74;99877.81;5082919;28;20125;-69
2022/11/16 03:32:11;;;;;;;6.32;4.00;;;;;;;19.32;48.66;99872.34;5091075;28;20461;-69
2022/11/16 03:34:45;;;;;;;7.18;4.05;;;;;;;19.35;48.59;99876.41;5101855;27;20093;-69
2022/11/16 03:37:12;;;;;;;7.45;4.20;;;;;;;19.23;48.87;99868.25;5088291;28;20098;-69
2022/11/16 03:39:38;;;;;;;7.22;3.75;;;;;;;19.22;49.03;99874.56;5082711;28;20032;-69
2022/11/16 03:42:12;;;;;;;7.53;3.72;;;;;;;19.31;48.75;99868.88;5087592;28;20127;-70
2022/11/16 03:44:43;;;;;;;10.73;4.03;;;;;;;19.29;48.96;99867.47;5103943;27;20032;-69
2022/11/16 03:47:09;;;;;;;6.22;4.18;;;;;;;19.30;48.85;99869.91;5086873;28;20039;-69
2022/11/16 03:49:34;;;;;;;8.82;4.20;;;;;;;19.27;48.92;99862.38;5084617;28;20088;-69
2022/11/16 03:52:01;;;;;;;7.43;4.30;;;;;;;19.35;48.69;99860.56;5082952;28;20037;-69
2022/11/16 03:54:27;;;;;;;7.75;4.25;;;;;;;19.30;48.87;99863.81;5088629;28;20039;-69
2022/11/16 03:56:53;;;;;;;5.00;3.53;;;;;;;19.23;49.08;99863.00;5087761;28;20035;-69
2022/11/16 03:59:19;;;;;;;5.60;3.80;;;;;;;19.41;48.62;99865.88;5086110;28;20553;-69
2022/11/16 04:01:45;;;;;;;11.55;4.72;;;;;;;19.30;48.78;99867.25;5085866;28;20043;-69
2022/11/16 04:24:10;;;;;;;7.00;4.10;;;;;;;19.34;48.80;99862.38;5073043;28;20039;-69
2022/11/16 04:29:11;;;;;;;7.47;4.25;;;;;;;19.22;48.94;99864.81;5092873;28;20080;-69
2022/11/16 04:39:51;;;;;;;6.85;4.63;;;;;;;19.18;49.15;99857.47;5088046;28;20058;-69
2022/11/16 04:42:21;;;;;;;6.38;4.22;;;;;;;19.35;48.86;99855.28;5086581;28;20719;-69
2022/11/16 04:47:48;;;;;;;8.57;4.78;;;;;;;19.15;49.30;99856.03;5087796;28;20048;-69
2022/11/16 04:50:15;;;;;;;6.03;4.15;;;;;;;19.25;49.11;99850.41;5104338;27;20036;-69
2022/11/16 04:52:41;;;;;;;9.40;4.40;;;;;;;19.27;49.16;99856.28;5089906;28;20045;-69
2022/11/16 04:55:10;;;;;;;7.03;4.50;;;;;;;19.33;49.06;99856.28;5086001;28;20143;-69
2022/11/16 04:57:36;;;;;;;7.35;4.55;;;;;;;19.31;48.95;99845.13;5095442;28;20035;-69
2022/11/16 05:00:05;;;;;;;7.47;4.00;;;;;;;19.36;49.13;99849.78;5085647;28;20042;-69
2022/11/16 05:02:32;;;;;;;8.05;4.20;;;;;;;19.22;49.22;99848.16;5092250;27;20158;-69
2022/11/16 05:04:58;;;;;;;8.75;4.43;;;;;;;19.26;49.08;99846.75;5092716;27;20089;-69
2022/11/16 05:07:24;;;;;;;8.93;4.53;;;;;;;19.27;49.11;99843.09;5089976;28;20446;-69
2022/11/16 05:09:54;;;;;;;8.18;4.32;;;;;;;19.28;49.11;99836.78;5089361;28;20059;-69
2022/11/16 05:12:23;;;;;;;6.30;4.15;;;;;;;19.30;49.20;99840.03;5086040;28;20042;-69
2022/11/16 05:14:54;;;;;;;6.95;4.50;;;;;;;19.20;49.33;99840.41;5090562;28;20056;-69
2022/11/16 05:17:23;;;;;;;7.40;5.28;;;;;;;19.20;49.35;99843.06;5087597;28;20036;-69
2022/11/16 05:22:41;;;;;;;7.10;4.60;;;;;;;19.20;49.13;99837.78;5078979;28;20096;-69
2022/11/16 05:25:08;;;;;;;6.55;4.45;;;;;;;19.21;49.13;99828.88;5074163;28;20130;-69
2022/11/16 05:27:34;;;;;;;7.35;5.05;;;;;;;19.24;49.10;99840.84;5087003;28;20085;-69
2022/11/16 05:30:02;;;;;;;8.52;4.43;;;;;;;19.24;49.15;99840.84;5087461;28;20032;-70
2022/11/16 05:32:28;;;;;;;7.13;4.28;;;;;;;19.25;49.12;99832.72;5093391;27;20054;-69
2022/11/16 05:34:57;;;;;;;7.07;4.00;;;;;;;19.15;49.40;99834.94;5086334;28;20401;-69
2022/11/16 05:37:25;;;;;;;6.90;4.57;;;;;;;19.20;49.29;99836.97;5089747;28;20408;-69
2022/11/16 05:39:53;;;;;;;6.53;4.20;;;;;;;19.21;49.51;99833.31;5099061;27;20603;-69
2022/11/16 05:42:20;;;;;;;9.07;4.75;;;;;;;19.27;49.13;99838.63;5085749;28;20035;-69
2022/11/16 05:44:46;;;;;;;7.75;4.85;;;;;;;19.32;49.05;99841.47;5086493;28;20039;-69
2022/11/16 05:47:11;;;;;;;7.72;5.18;;;;;;;19.25;49.23;99839.84;5081042;28;20096;-69
2022/11/16 05:49:37;;;;;;;7.07;4.03;;;;;;;19.25;49.17;99842.47;5090964;28;20500;-69
2022/11/16 05:52:02;;;;;;;6.18;4.13;;;;;;;19.21;49.39;99838.59;5088279;28;20048;-69
2022/11/16 05:54:30;;;;;;;7.63;4.40;;;;;;;19.18;49.37;99839.81;5085044;28;21373;-69
2022/11/16 05:56:55;;;;;;;7.75;4.32;;;;;;;19.15;49.39;99836.75;5079745;28;20071;-69
2022/11/16 05:59:22;;;;;;;6.18;4.40;;;;;;;19.17;49.40;99843.47;5068454;28;20094;-69
2022/11/16 06:01:52;;;;;;;7.22;4.63;;;;;;;19.20;49.36;99848.34;5101606;27;20020;-69
2022/11/16 06:04:17;;;;;;;8.55;4.80;;;;;;;19.18;49.34;99846.91;5087528;28;20121;-69
2022/11/16 06:06:43;;;;;;;9.07;4.43;;;;;;;19.27;49.31;99853.66;5090785;28;20043;-69
2022/11/16 06:09:11;;;;;;;7.25;4.53;;;;;;;19.25;49.30;99855.69;5084522;28;20494;-69
2022/11/16 06:11:38;;;;;;;7.40;4.25;;;;;;;19.17;49.50;99864.56;5083011;28;20032;-69
2022/11/16 06:14:04;;;;;;;6.47;4.72;;;;;;;19.25;49.45;99860.97;5087750;28;20047;-69
2022/11/16 06:16:31;;;;;;;7.15;4.13;;;;;;;19.17;49.43;99871.69;5084027;28;20048;-69
2022/11/16 06:18:59;;;;;;;6.90;4.28;;;;;;;19.22;49.39;99871.91;5088230;28;20028;-69
2022/11/16 06:21:24;;;;;;;9.32;4.43;;;;;;;19.26;49.28;99883.69;5087674;28;20067;-69
2022/11/16 06:23:50;;;;;;;6.78;4.97;;;;;;;19.13;49.55;99888.91;5073016;28;20047;-69
2022/11/16 06:26:17;;;;;;;6.38;4.60;;;;;;;19.19;49.28;99886.28;5086615;28;20036;-69
2022/11/16 06:28:43;;;;;;;6.35;4.30;;;;;;;19.15;49.50;99889.53;5087122;28;20036;-69
2022/11/16 06:31:09;;;;;;;6.47;4.03;;;;;;;19.15;49.66;99893.00;5086278;28;20036;-69
2022/11/16 06:33:39;;;;;;;5.85;4.28;;;;;;;19.14;49.64;99891.34;5085743;28;20036;-69
2022/11/16 06:36:10;;;;;;;7.93;4.68;;;;;;;19.18;49.47;99900.50;5073220;28;20052;-69
2022/11/16 06:38:36;;;;;;;6.28;4.05;;;;;;;19.16;49.48;99902.53;5089535;28;20431;-69
2022/11/16 06:41:01;;;;;;;7.43;4.50;;;;;;;19.25;49.19;99905.81;5088224;28;20100;-69
2022/11/16 06:43:29;;;;;;;6.85;4.40;;;;;;;19.17;49.46;99912.06;5085622;28;20046;-69
2022/11/16 06:45:59;;;;;;;8.23;4.90;;;;;;;19.25;49.26;99909.28;5083256;28;20035;-69
2022/11/16 06:48:24;;;;;;;7.57;4.97;;;;;;;19.18;49.56;99912.88;5088103;28;20027;-69
2022/11/16 06:50:51;;;;;;;6.20;4.28;;;;;;;19.18;49.53;99911.06;5089195;28;20032;-69
2022/11/16 06:53:19;;;;;;;6.25;4.28;;;;;;;19.15;49.50;99914.09;5084092;28;20060;-69
2022/11/16 06:55:46;;;;;;;6.53;4.32;;;;;;;19.19;49.41;99927.72;5082987;28;20032;-69
2022/11/16 06:58:12;;;;;;;7.82;4.10;;;;;;;19.24;49.42;99927.97;5084062;28;20040;-69
2022/11/16 07:00:39;;;;;;;7.00;3.95;;;;;;;19.17;49.37;99930.53;5085740;28;20040;-69
2022/11/16 07:03:07;;;;;;;6.55;3.95;;;;;;;19.19;49.53;99927.72;5087547;28;20100;-69
2022/11/16 07:05:33;;;;;;;6.35;3.85;;;;;;;19.12;49.63;99943.53;5088711;28;20035;-69
2022/11/16 07:07:59;;;;;;;6.22;4.28;;;;;;;19.23;49.30;99929.78;5085830;28;20801;-69
2022/11/16 07:10:25;;;;;;;8.48;4.55;;;;;;;19.26;49.28;99942.59;5084431;28;20031;-69
2022/11/16 07:12:51;;;;;;;6.57;4.22;;;;;;;19.16;49.42;99941.31;5083679;28;20032;-69
2022/11/16 07:15:19;;;;;;;7.38;4.40;;;;;;;19.15;49.56;99940.50;5067937;28;20556;-69
2022/11/16 07:17:46;;;;;;;10.70;4.45;;;;;;;19.17;49.36;99946.38;5084321;28;20496;-69
2022/11/16 07:20:12;;;;;;;5.32;4.00;;;;;;;19.16;49.54;99947.41;5088697;28;20043;-69
2022/11/16 07:22:38;;;;;;;8.13;4.10;;;;;;;19.14;49.58;99952.06;5085819;28;20118;-69
2022/11/16 07:25:05;;;;;;;5.35;3.70;;;;;;;19.21;49.33;99949.44;5088279;28;20374;-69
2022/11/16 07:27:30;;;;;;;7.15;4.78;;;;;;;19.21;49.34;99937.09;5085155;28;20047;-69
2022/11/16 07:29:56;;;;;;;5.75;4.28;;;;;;;19.16;49.58;99934.19;5088272;28;20381;-69
2022/11/16 07:32:41;;;;;;;7.85;4.53;;;;;;;19.15;49.68;99950.22;5089044;28;20038;-70
2022/11/16 07:35:42;;;;;;;5.90;4.03;;;;;;;19.05;49.70;99960.34;5021126;28;20049;-69
2022/11/16 07:38:08;;;;;;;7.40;3.95;;;;;;;19.09;49.73;99951.84;5065082;28;20065;-69
2022/11/16 07:40:34;;;;;;;6.28;4.00;;;;;;;19.13;49.55;99954.91;5086477;28;20040;-69
2022/11/16 07:42:59;;;;;;;5.70;3.55;;;;;;;19.12;49.67;99966.47;5087831;28;20043;-69
2022/11/16 07:45:37;;;;;;;7.75;4.07;;;;;;;19.15;49.66;99971.34;5096956;28;20032;-69
2022/11/16 07:48:06;;;;;;;7.37;3.57;;;;;;;19.11;49.71;99975.41;5092671;28;20046;-69
2022/11/16 07:50:50;;;;;;;5.38;3.95;;;;;;;19.16;49.68;99978.25;5094684;28;20062;-69
2022/11/16 07:53:17;;;;;;;6.55;4.07;;;;;;;19.22;49.49;99982.78;5091870;28;20481;-69
2022/11/16 07:55:43;;;;;;;5.82;3.95;;;;;;;19.07;49.82;99993.44;5094757;28;20043;-69
2022/11/16 07:58:08;;;;;;;5.38;3.45;;;;;;;19.17;49.51;99996.53;5092403;28;20035;-69
2022/11/16 08:00:34;;;;;;;5.90;3.60;;;;;;;19.10;49.72;100000.16;5080696;28;20032;-69
2022/11/16 08:03:10;;;;;;;6.53;3.83;;;;;;;19.13;49.51;100005.84;5086840;28;20044;-69
2022/11/16 08:05:36;;;;;;;6.53;3.78;;;;;;;19.11;49.71;99999.16;5087742;28;20526;-69
2022/11/16 08:08:01;;;;;;;8.48;4.05;;;;;;;19.18;49.40;100010.53;5087506;28;20089;-69
2022/11/16 08:10:29;;;;;;;9.85;5.00;;;;;;;19.36;49.18;100010.03;5068057;28;20152;-69
2022/11/16 08:12:56;;;;;;;6.28;3.72;;;;;;;19.20;49.50;100006.69;5101751;28;20039;-69
2022/11/16 08:15:23;;;;;;;12.48;4.65;;;;;;;19.26;49.30;100013.03;5064547;28;20039;-69
2022/11/16 08:17:50;;;;;;;11.80;4.18;;;;;;;19.26;49.31;100002.47;5085196;28;20038;-69
2022/11/16 08:20:16;;;;;;;7.65;3.55;;;;;;;19.31;49.10;100003.50;5089346;28;20418;-69
2022/11/16 08:22:42;;;;;;;4.47;3.40;;;;;;;19.20;49.14;100011.16;5082973;28;20051;-69
2022/11/16 08:25:08;;;;;;;6.47;3.50;;;;;;;19.19;49.49;100017.44;5084248;28;20036;-69
2022/11/16 08:27:34;;;;;;;8.23;3.53;;;;;;;19.26;49.17;100015.69;5087269;28;20047;-69
2022/11/16 08:30:02;;;;;;;6.68;3.50;;;;;;;19.34;49.22;100018.13;5084224;28;20952;-69
2022/11/16 08:32:28;;;;;;;4.70;3.22;;;;;;;19.29;49.20;100020.56;5084404;28;20049;-69
2022/11/16 08:34:55;;;;;;;6.13;3.53;;;;;;;19.21;49.21;100025.97;5082078;28;20035;-69
2022/11/16 08:37:21;;;;;;;9.38;3.95;;;;;;;19.37;48.91;100024.84;5082249;28;20595;-69
2022/11/16 08:39:47;;;;;;;6.22;3.72;;;;;;;19.32;49.25;100034.19;5082363;28;20067;-70
2022/11/16 08:42:13;;;;;;;4.97;3.42;;;;;;;19.28;49.15;100032.94;5088572;28;20480;-69
2022/11/16 08:44:42;;;;;;;6.80;3.70;;;;;;;19.20;49.43;100034.91;5086320;28;20402;-70
2022/11/16 08:47:12;;;;;;;5.60;4.00;;;;;;;19.18;49.40;100039.56;5088699;28;20100;-70
2022/11/16 08:49:44;;;;;;;4.90;3.38;;;;;;;19.32;49.00;100033.34;5093769;28;20032;-69
2022/11/16 08:52:09;;;;;;;5.60;3.30;;;;;;;19.29;49.08;100047.78;5092377;28;20043;-69
2022/11/16 08:54:35;;;;;;;5.22;3.70;;;;;;;19.29;48.98;100044.31;5090774;28;20032;-69
2022/11/16 08:57:00;;;;;;;5.47;3.30;;;;;;;19.25;48.98;100043.91;5091807;28;20044;-69
2022/11/16 08:59:28;;;;;;;5.07;3.10;;;;;;;19.12;49.51;100046.44;5087930;28;20072;-69
2022/11/16 09:01:58;;;;;;;;;;;;;;;19.14;49.33;100047.06;5091530;28;20036;-70
2022/11/16 09:04:24;;;;;;;6.38;3.95;;;;;;;19.33;48.99;100046.38;5090600;28;19969;-69
2022/11/16 09:06:51;;;;;;;6.53;4.00;;;;;;;19.26;49.07;100048.16;5089182;28;20052;-70
2022/11/16 09:09:17;;;;;;;5.47;3.53;;;;;;;19.37;48.99;100040.69;5092507;28;20818;-69
2022/11/16 09:11:42;;;;;;;6.47;3.80;;;;;;;19.27;49.05;100048.97;5092403;28;20118;-69
2022/11/16 09:14:08;;;;;;;5.82;3.53;;;;;;;19.31;49.09;100055.50;5095528;28;20047;-69
2022/11/16 09:16:33;;;;;;;6.30;3.83;;;;;;;19.27;49.19;100051.63;5095440;28;20443;-69
2022/11/16 09:19:00;;;;;;;6.50;4.35;;;;;;;19.17;49.35;100054.59;5092649;28;20691;-69
2022/11/16 09:21:27;;;;;;;5.63;3.75;;;;;;;19.14;49.41;100060.25;5088302;28;20421;-69
2022/11/16 09:23:54;;;;;;;6.97;3.42;;;;;;;19.23;49.10;100063.59;5092296;28;20103;-70
2022/11/16 09:26:21;;;;;;;5.15;3.50;;;;;;;19.22;49.05;100061.94;5092301;28;20484;-69
2022/11/16 09:28:54;;;;;;;5.05;3.40;;;;;;;19.32;48.97;100072.97;5097430;28;20044;-69
2022/11/16 09:31:21;;;;;;;5.28;3.20;;;;;;;19.18;49.17;100061.50;5095849;28;20056;-69
2022/11/16 09:33:47;;;;;;;5.60;3.42;;;;;;;19.23;49.16;100068.84;5092526;28;20055;-70
2022/11/16 09:36:14;;;;;;;6.65;3.55;;;;;;;19.24;49.15;100071.31;5092268;28;20134;-69
2022/11/16 09:38:42;;;;;;;6.20;4.05;;;;;;;19.20;49.01;100072.69;5089276;28;20450;-70
2022/11/16 09:41:24;;;;;;;5.07;3.72;;;;;;;19.21;49.00;100076.13;5094784;28;20054;-69
2022/11/16 09:44:13;;;;;;;6.32;3.63;;;;;;;19.25;48.97;100078.22;5088151;28;20073;-69
2022/11/16 09:46:47;;;;;;;7.60;4.25;;;;;;;19.33;48.94;100079.88;5095320;28;20032;-69
2022/11/16 09:49:18;;;;;;;7.07;3.50;;;;;;;19.35;48.92;100085.75;5091928;28;20521;-69
2022/11/16 09:51:47;;;;;;;5.32;3.88;;;;;;;19.29;49.08;100086.56;5089589;28;20032;-69
2022/11/16 09:54:21;;;;;;;4.97;3.65;;;;;;;19.39;48.85;100086.19;5087984;28;20027;-69
2022/11/16 09:56:52;;;;;;;6.45;4.03;;;;;;;19.28;49.20;100075.19;5085561;28;20493;-69
2022/11/16 09:59:24;;;;;;;7.28;3.50;;;;;;;19.36;48.91;100089.22;5086071;28;20046;-69
2022/11/16 10:02:01;;;;;;;8.43;4.20;;;;;;;19.26;49.08;100084.31;5089525;28;20032;-69
2022/11/16 10:04:35;;;;;;;4.75;3.70;;;;;;;19.37;48.84;100093.50;5095156;28;20035;-69
2022/11/16 10:07:12;;;;;;;11.95;3.85;;;;;;;19.52;48.70;100086.25;5091640;28;20529;-71
2022/11/16 10:09:37;;;;;;;5.97;3.65;;;;;;;19.47;48.52;100084.22;5095250;28;20749;-71
2022/11/16 10:12:19;;;;;;;5.38;3.55;;;;;;;19.47;48.61;100083.41;5098328;28;20077;-70
2022/11/16 10:14:56;;;;;;;8.15;3.60;;;;;;;19.33;49.17;100085.97;5095258;28;20718;-70
2022/11/16 10:17:37;;;;;;;5.80;3.80;;;;;;;19.25;49.29;100096.69;5085922;28;20055;-68
2022/11/16 10:20:24;;;;;;;4.93;3.70;;;;;;;19.22;49.40;100091.81;5093687;28;20119;-69
2022/11/16 10:23:04;;;;;;;7.70;4.20;;;;;;;19.29;49.38;100102.38;5088132;28;20112;-69
2022/11/16 10:25:54;;;;;;;6.68;4.47;;;;;;;19.31;49.20;100097.72;5094522;28;20750;-69
2022/11/16 10:28:50;;;;;;;7.55;4.30;;;;;;;19.23;49.39;100096.06;5096357;28;20042;-69
2022/11/16 10:31:29;;;;;;;7.05;4.07;;;;;;;19.21;49.57;100097.25;5093070;28;20160;-69
2022/11/16 10:33:57;;;;;;;5.95;3.85;;;;;;;19.21;49.24;100089.31;5087749;28;20604;-69
2022/11/16 10:36:26;;;;;;;4.97;3.78;;;;;;;19.21;49.50;100089.31;5091876;28;20036;-69
2022/11/16 10:38:55;;;;;;;6.97;3.53;;;;;;;19.29;49.10;100087.38;5081373;28;20794;-69
2022/11/16 10:41:38;;;;;;;8.40;4.00;;;;;;;19.27;49.35;100096.50;5091839;28;20164;-69
2022/11/16 10:44:53;;;;;;;6.03;3.72;;;;;;;19.27;49.29;100099.94;5092442;28;20035;-69
2022/11/16 10:47:41;;;;;;;7.88;3.75;;;;;;;19.27;49.37;100096.50;5078358;28;20056;-70
2022/11/16 10:50:38;;;;;;;9.70;4.18;;;;;;;19.38;49.45;100098.56;5082282;28;20674;-69
2022/11/16 10:53:04;;;;;;;8.57;4.82;;;;;;;19.32;49.34;100099.34;5087098;28;21011;-69
2022/11/16 10:55:29;;;;;;;8.27;4.00;;;;;;;19.27;49.43;100102.59;5089028;28;20028;-69
2022/11/16 10:58:00;;;;;;;5.95;3.78;;;;;;;19.25;49.58;100107.25;5090499;28;20042;-69
2022/11/16 11:00:48;;;;;;;7.07;3.88;;;;;;;19.24;49.54;100104.81;5093197;28;20604;-69
2022/11/16 11:03:14;;;;;;;7.53;4.30;;;;;;;19.19;49.75;100107.19;5090425;28;20058;-69
2022/11/16 11:05:52;;;;;;;8.70;4.07;;;;;;;19.21;49.59;100105.16;5085395;28;20039;-69
2022/11/16 11:08:29;;;;;;;8.65;4.18;;;;;;;19.15;49.65;100095.38;5087958;28;20040;-69
2022/11/16 11:14:08;;;;;;;8.80;4.75;;;;;;;19.33;49.37;100101.81;5069701;28;20043;-69
2022/11/16 11:16:33;;;;;;;11.63;4.47;;;;;;;19.28;49.47;100103.41;5091812;28;20058;-69
2022/11/16 11:19:23;;;;;;;8.77;4.05;;;;;;;19.31;49.48;100105.66;5086517;28;20044;-68
2022/11/16 11:21:54;;;;;;;6.65;4.28;;;;;;;19.29;49.39;100099.75;5085327;28;20039;-68
2022/11/16 11:24:19;;;;;;;6.30;4.15;;;;;;;19.28;49.28;100103.41;5090407;28;20099;-68
2022/11/16 11:26:51;;;;;;;9.68;4.53;;;;;;;19.22;49.60;100102.34;5087075;28;20063;-69
2022/11/16 11:29:20;;;;;;;9.57;4.30;;;;;;;19.25;49.48;100093.22;5086219;28;20027;-69
2022/11/16 11:31:52;;;;;;;6.32;4.18;;;;;;;19.37;49.55;100096.13;5085796;28;20108;-69
2022/11/16 11:34:22;;;;;;;7.47;4.30;;;;;;;19.30;49.35;100101.38;5091816;28;20053;-69
2022/11/16 11:36:59;;;;;;;6.97;4.38;;;;;;;19.29;49.78;100100.56;5089540;28;20027;-69
2022/11/16 11:39:43;;;;;;;10.32;4.75;;;;;;;19.32;49.35;100107.28;5085671;28;20055;-69
2022/11/16 11:42:11;;;;;;;9.50;4.93;;;;;;;19.26;49.51;100106.22;5090569;28;20043;-67
2022/11/16 11:44:58;;;;;;;8.23;4.38;;;;;;;19.17;49.79;100096.00;5085023;28;20499;-67
2022/11/16 11:47:36;;;;;;;6.63;4.28;;;;;;;19.27;49.50;100089.38;5089725;28;20042;-68
2022/11/16 11:50:12;;;;;;;6.07;3.70;;;;;;;19.35;49.31;100091.03;5086501;28;20433;-70
2022/11/16 11:52:46;;;;;;;7.38;3.90;;;;;;;19.53;48.99;100095.81;5086216;28;20036;-69
2022/11/16 11:55:16;;;;;;;7.55;4.38;;;;;;;19.36;49.22;100082.13;5085030;28;20040;-69
2022/11/16 11:57:46;;;;;;;7.63;4.07;;;;;;;19.46;49.08;100092.34;5085235;28;20079;-69
2022/11/16 12:00:13;;;;;;;8.13;4.38;;;;;;;19.23;49.58;100084.69;5068888;28;20363;-69
2022/11/16 12:02:58;;;;;;;8.00;4.50;;;;;;;19.32;49.42;100079.06;5091597;28;20044;-69
2022/11/16 12:05:34;;;;;;;7.10;4.30;;;;;;;19.29;49.55;100084.72;5085310;28;20035;-69
2022/11/16 12:08:19;;;;;;;9.20;4.88;;;;;;;19.37;49.41;100088.22;5091738;28;20040;-69
2022/11/16 12:10:54;;;;;;;7.30;3.97;;;;;;;19.39;49.34;100080.91;5086229;28;20121;-69
2022/11/16 12:13:19;;;;;;;7.65;3.97;;;;;;;19.36;49.47;100090.03;5087460;28;21414;-69
2022/11/16 12:16:25;;;;;;;6.00;3.90;;;;;;;19.35;49.43;100090.22;5090450;28;20086;-69
2022/11/16 12:19:46;;;;;;;7.60;4.20;;;;;;;19.36;49.37;100087.41;5095757;28;20035;-69
2022/11/16 12:22:32;;;;;;;6.00;4.03;;;;;;;19.44;49.25;100083.81;5009528;28;20492;-69
2022/11/16 12:25:16;;;;;;;8.68;4.55;;;;;;;19.43;49.19;100085.63;5089410;28;20109;-69
2022/11/16 12:27:41;;;;;;;9.70;5.00;;;;;;;19.38;49.37;100085.38;5090116;28;20035;-69
2022/11/16 12:30:12;;;;;;;6.43;3.63;;;;;;;19.40;49.35;100075.47;5086690;28;20045;-69
2022/11/16 12:32:56;;;;;;;7.28;3.83;;;;;;;19.36;49.25;100068.91;5089270;28;20035;-69